createdAt,value
2022-12-11T00:00:47.239Z,101111.09
2022-12-11T00:03:16.122Z,101111.31
2022-12-11T00:05:43.210Z,101122.53
2022-12-11T00:08:10.713Z,101111.41
2022-12-11T00:10:38.050Z,101115.75
2022-12-11T00:13:05.380Z,101114.25
2022-12-11T00:15:38.187Z,101113.38
2022-12-11T00:18:04.604Z,101118.56
2022-12-11T00:20:31.077Z,101121.16
2022-12-11T00:22:57.702Z,101120.41
2022-12-11T00:25:24.274Z,101121.38
2022-12-11T00:27:58.104Z,101124.88
2022-12-11T00:30:24.660Z,101126.56
2022-12-11T00:32:54.143Z,101126.69
2022-12-11T00:35:20.500Z,101126.72
2022-12-11T00:37:46.936Z,101127.63
2022-12-11T00:40:13.281Z,101124.22
2022-12-11T00:42:39.617Z,101119.06
2022-12-11T00:45:06.443Z,101121.09
2022-12-11T00:47:32.788Z,101118.66
2022-12-11T00:49:59.234Z,101111.84
2022-12-11T00:52:26.114Z,101115.31
2022-12-11T00:54:52.513Z,101119.84
2022-12-11T00:57:18.912Z,101119.84
2022-12-11T00:59:45.298Z,101109.38
2022-12-11T01:02:11.692Z,101114.50
2022-12-11T01:04:38.516Z,101106.72
2022-12-11T01:07:04.899Z,101103.31
2022-12-11T01:09:49.696Z,101098.19
2022-12-11T01:12:17.510Z,101100.84
2022-12-11T01:14:43.946Z,101092.16
2022-12-11T01:17:10.410Z,101088.59
2022-12-11T01:19:38.371Z,101096.34
2022-12-11T01:22:25.044Z,101090.31
2022-12-11T01:24:51.400Z,101089.44
2022-12-11T01:27:17.824Z,101090.31
2022-12-11T01:29:46.589Z,101089.56
2022-12-11T01:32:13.012Z,101089.69
2022-12-11T01:34:39.567Z,101097.69
2022-12-11T01:37:06.021Z,101092.50
2022-12-11T01:39:34.793Z,101086.47
2022-12-11T01:42:04.113Z,101087.22
2022-12-11T01:44:30.520Z,101095.97
2022-12-11T01:46:57.069Z,101093.44
2022-12-11T01:49:27.451Z,101097.81
2022-12-11T01:52:02.910Z,101102.88
2022-12-11T01:54:30.021Z,101109.81
2022-12-11T01:57:00.901Z,101101.25
2022-12-11T01:59:31.056Z,101095.00
2022-12-11T02:02:04.566Z,101099.44
2022-12-11T02:04:32.979Z,101092.53
2022-12-11T02:07:03.425Z,101089.06
2022-12-11T02:09:33.151Z,101095.00
2022-12-11T02:12:03.052Z,101092.53
2022-12-11T02:15:00.458Z,101084.84
2022-12-11T02:17:44.174Z,101090.22
2022-12-11T02:20:16.792Z,101093.69
2022-12-11T02:23:21.001Z,101085.91
2022-12-11T02:26:01.403Z,101077.03
2022-12-11T02:28:55.736Z,101072.63
2022-12-11T02:31:39.054Z,101067.53
2022-12-11T02:34:10.328Z,101070.34
2022-12-11T02:36:43.999Z,101077.28
2022-12-11T02:39:13.419Z,101072.25
2022-12-11T02:41:48.674Z,101069.66
2022-12-11T02:44:20.270Z,101068.06
2022-12-11T02:46:47.100Z,101062.03
2022-12-11T02:49:17.592Z,101068.31
2022-12-11T02:51:47.302Z,101064.91
2022-12-11T02:54:20.818Z,101051.59
2022-12-11T02:56:55.742Z,101070.16
2022-12-11T02:59:29.861Z,101064.06
2022-12-11T03:01:56.320Z,101057.88
2022-12-11T03:04:25.664Z,101074.38
2022-12-11T03:06:56.337Z,101063.00
2022-12-11T03:09:39.797Z,101053.88
2022-12-11T03:12:09.745Z,101072.31
2022-12-11T03:14:38.985Z,101074.84
2022-12-11T03:17:15.635Z,101073.91
2022-12-11T03:19:58.068Z,101069.47
2022-12-11T03:22:52.431Z,101070.34
2022-12-11T03:25:23.315Z,101071.19
2022-12-11T03:28:03.137Z,101065.03
2022-12-11T03:30:34.734Z,101061.56
2022-12-11T03:33:08.523Z,101058.03
2022-12-11T03:35:40.435Z,101052.84
2022-12-11T03:38:13.831Z,101061.72
2022-12-11T03:40:42.577Z,101053.13
2022-12-11T03:43:11.145Z,101056.53
2022-12-11T03:45:40.087Z,101062.63
2022-12-11T03:48:12.847Z,101063.63
2022-12-11T03:50:40.644Z,101060.06
2022-12-11T03:53:07.976Z,101067.19
2022-12-11T03:55:37.619Z,101055.00
2022-12-11T03:58:05.072Z,101054.13
2022-12-11T04:00:31.711Z,101047.09
2022-12-11T04:03:27.166Z,101044.50
2022-12-11T04:05:55.638Z,101047.94
2022-12-11T04:08:23.244Z,101042.88
2022-12-11T04:11:14.177Z,101040.34
2022-12-11T04:13:41.626Z,101041.34
2022-12-11T04:16:12.585Z,101034.38
2022-12-11T04:18:57.491Z,101043.19
2022-12-11T04:21:42.608Z,101039.31
2022-12-11T04:24:15.365Z,101048.69
2022-12-11T04:26:42.727Z,101044.38
2022-12-11T04:29:12.372Z,101048.75
2022-12-11T04:31:40.996Z,101040.03
2022-12-11T04:34:08.491Z,101045.16
2022-12-11T04:36:34.961Z,101049.56
2022-12-11T04:39:01.488Z,101044.50
2022-12-11T04:41:28.043Z,101055.91
2022-12-11T04:43:57.680Z,101048.19
2022-12-11T04:46:24.894Z,101044.91
2022-12-11T04:48:57.418Z,101038.03
2022-12-11T04:51:24.931Z,101033.91
2022-12-11T04:53:52.828Z,101034.03
2022-12-11T04:56:19.784Z,101027.31
2022-12-11T04:58:47.003Z,101022.31
2022-12-11T05:01:19.627Z,101025.09
2022-12-11T05:03:46.939Z,101030.34
2022-12-11T05:06:14.385Z,101031.19
2022-12-11T05:08:43.975Z,101037.22
2022-12-11T05:11:12.940Z,101034.53
2022-12-11T05:13:41.154Z,101035.38
2022-12-11T05:16:09.622Z,101042.28
2022-12-11T05:18:36.083Z,101042.28
2022-12-11T05:21:05.658Z,101044.81
2022-12-11T05:23:32.694Z,101042.22
2022-12-11T05:26:01.866Z,101041.25
2022-12-11T05:28:30.620Z,101038.72
2022-12-11T05:31:01.759Z,101038.78
2022-12-11T05:33:28.691Z,101026.63
2022-12-11T05:35:55.578Z,101030.94
2022-12-11T05:38:22.739Z,101026.63
2022-12-11T05:41:20.209Z,101024.09
2022-12-11T05:43:46.678Z,101025.75
2022-12-11T05:46:16.728Z,101017.06
2022-12-11T05:48:44.914Z,101028.28
2022-12-11T05:51:12.542Z,101023.72
2022-12-11T05:53:40.494Z,101023.78
2022-12-11T05:56:11.234Z,101016.00
2022-12-11T05:58:38.130Z,101016.78
2022-12-11T06:01:17.234Z,101013.13
2022-12-11T06:03:45.321Z,101010.53
2022-12-11T06:06:12.192Z,101008.72
2022-12-11T06:08:38.643Z,101012.25
2022-12-11T06:11:06.823Z,101019.16
2022-12-11T06:13:33.950Z,101012.22
2022-12-11T06:16:05.466Z,101018.28
2022-12-11T06:18:35.049Z,101001.69
2022-12-11T06:21:01.422Z,101012.91
2022-12-11T06:23:27.840Z,101005.97
2022-12-11T06:25:55.459Z,101017.03
2022-12-11T06:28:21.820Z,101009.31
2022-12-11T06:30:48.161Z,101010.84
2022-12-11T06:33:14.590Z,101011.47
2022-12-11T06:35:42.489Z,101013.13
2022-12-11T06:38:10.828Z,101013.91
2022-12-11T06:40:37.468Z,101014.75
2022-12-11T06:43:03.945Z,101015.72
2022-12-11T06:45:30.853Z,101019.38
2022-12-11T06:47:58.385Z,101018.53
2022-12-11T06:50:24.805Z,101028.13
2022-12-11T06:52:51.200Z,101024.38
2022-12-11T06:55:17.834Z,101035.50
2022-12-11T06:57:44.332Z,101035.41
2022-12-11T07:00:11.402Z,101023.84
2022-12-11T07:02:37.856Z,101036.28
2022-12-11T07:05:05.037Z,101038.66
2022-12-11T07:07:31.438Z,101044.81
2022-12-11T07:10:04.065Z,101043.94
2022-12-11T07:12:34.821Z,101038.00
2022-12-11T07:15:01.175Z,101037.13
2022-12-11T07:17:29.280Z,101044.78
2022-12-11T07:19:55.999Z,101041.34
2022-12-11T07:22:22.485Z,101043.06
2022-12-11T07:24:48.941Z,101042.22
2022-12-11T07:27:15.344Z,101056.16
2022-12-11T07:29:41.759Z,101049.22
2022-12-11T07:32:08.375Z,101055.19
2022-12-11T07:34:34.851Z,101051.72
2022-12-11T07:37:02.482Z,101052.56
2022-12-11T07:39:28.981Z,101054.25
2022-12-11T07:41:56.744Z,101054.88
2022-12-11T07:44:23.332Z,101054.88
2022-12-11T07:46:49.849Z,101057.53
2022-12-11T07:49:16.270Z,101055.75
2022-12-11T07:51:43.144Z,101042.84
2022-12-11T07:54:16.571Z,101046.66
2022-12-11T07:56:46.462Z,101051.09
2022-12-11T07:59:16.565Z,101052.84
2022-12-11T08:01:45.364Z,101058.03
2022-12-11T08:04:15.546Z,101060.59
2022-12-11T08:06:42.512Z,101062.22
2022-12-11T08:09:14.680Z,101055.91
2022-12-11T08:11:45.475Z,101061.91
2022-12-11T08:14:11.927Z,101061.97
2022-12-11T08:16:40.665Z,101066.41
2022-12-11T08:19:07.148Z,101064.44
2022-12-11T08:21:33.541Z,101069.69
2022-12-11T08:24:01.087Z,101070.66
2022-12-11T08:26:30.060Z,101060.19
2022-12-11T08:28:57.019Z,101075.91
2022-12-11T08:31:24.076Z,101077.56
2022-12-11T08:33:50.758Z,101076.66
2022-12-11T08:36:20.462Z,101075.84
2022-12-11T08:38:56.881Z,101051.06
2022-12-11T08:41:29.660Z,101074.50
2022-12-11T08:44:31.942Z,101078.94
2022-12-11T08:46:58.427Z,101078.03
2022-12-11T08:49:27.520Z,101068.47
2022-12-11T08:51:56.354Z,101071.03
2022-12-11T08:54:22.836Z,101065.88
2022-12-11T08:56:52.339Z,101065.00
2022-12-11T08:59:23.414Z,101063.28
2022-12-11T09:01:51.208Z,101058.94
2022-12-11T09:04:18.872Z,101061.78
2022-12-11T09:06:45.190Z,101058.34
2022-12-11T09:09:14.915Z,101060.19
2022-12-11T09:11:41.666Z,101050.88
2022-12-11T09:14:16.181Z,101051.84
2022-12-11T09:17:16.734Z,101045.03
2022-12-11T09:20:32.039Z,101048.25
2022-12-11T09:23:22.490Z,101025.00
2022-12-11T09:25:48.908Z,101030.22
2022-12-11T09:28:18.892Z,101025.69
2022-12-11T09:30:45.474Z,101034.63
2022-12-11T09:33:12.197Z,101032.09
2022-12-11T09:35:41.035Z,101043.63
2022-12-11T09:38:15.375Z,101043.09
2022-12-11T09:40:43.308Z,101038.88
2022-12-11T09:43:27.846Z,101041.47
2022-12-11T09:45:56.160Z,101038.94
2022-12-11T09:48:25.284Z,101033.69
2022-12-11T09:50:55.049Z,101043.09
2022-12-11T09:53:33.953Z,101035.31
2022-12-11T09:56:37.408Z,101033.75
2022-12-11T09:59:31.954Z,101037.88
2022-12-11T10:02:01.513Z,101032.59
2022-12-11T10:04:49.848Z,101034.38
2022-12-11T10:07:22.979Z,101026.41
2022-12-11T10:09:56.616Z,101033.25
2022-12-11T10:12:47.939Z,101042.00
2022-12-11T10:15:25.679Z,101038.50
2022-12-11T10:17:57.554Z,101040.94
2022-12-11T10:20:36.450Z,101042.75
2022-12-11T10:23:06.253Z,101038.56
2022-12-11T10:25:37.362Z,101038.56
2022-12-11T10:28:14.968Z,101038.00
2022-12-11T10:31:07.744Z,101034.19
2022-12-11T10:33:39.577Z,101032.66
2022-12-11T10:36:08.266Z,101029.31
2022-12-11T10:38:40.441Z,101017.00
2022-12-11T10:41:18.921Z,101019.69
2022-12-11T10:43:51.503Z,101016.88
2022-12-11T10:46:28.649Z,101022.84
2022-12-11T10:48:57.384Z,101023.59
2022-12-11T10:51:35.653Z,101018.34
2022-12-11T10:54:29.552Z,101016.56
2022-12-11T10:56:56.992Z,101019.09
2022-12-11T10:59:37.037Z,101012.16
2022-12-11T11:02:05.663Z,101014.75
2022-12-11T11:04:36.714Z,101004.16
2022-12-11T11:07:19.150Z,100996.38
2022-12-11T11:09:46.247Z,101001.66
2022-12-11T11:12:27.558Z,101002.41
2022-12-11T11:15:08.088Z,101005.81
2022-12-11T11:17:52.760Z,101000.38
2022-12-11T11:20:25.333Z,100993.41
2022-12-11T11:22:55.273Z,101002.41
2022-12-11T11:25:24.552Z,100998.94
2022-12-11T11:27:57.661Z,100997.53
2022-12-11T11:30:38.343Z,100998.59
2022-12-11T11:33:20.104Z,100994.31
2022-12-11T11:36:00.276Z,100991.69
2022-12-11T11:38:40.920Z,100991.72
2022-12-11T11:41:31.645Z,100990.16
2022-12-11T11:44:08.014Z,100997.94
2022-12-11T11:46:47.778Z,100998.81
2022-12-11T11:50:01.646Z,100986.59
2022-12-11T11:52:34.664Z,100979.56
2022-12-11T11:55:11.644Z,100973.44
2022-12-11T11:58:04.089Z,100973.63
2022-12-11T12:00:33.965Z,100971.88
2022-12-11T12:03:03.833Z,100976.09
2022-12-11T12:05:42.620Z,100969.84
2022-12-11T12:08:30.000Z,100966.66
2022-12-11T12:11:12.241Z,100973.38
2022-12-11T12:13:50.447Z,100971.59
2022-12-11T12:19:43.647Z,100967.59
2022-12-11T12:22:19.828Z,100966.81
2022-12-11T12:24:57.002Z,100974.03
2022-12-11T12:27:52.605Z,100974.69
2022-12-11T12:30:23.015Z,100971.91
2022-12-11T12:33:13.014Z,100976.44
2022-12-11T12:35:55.060Z,100967.09
2022-12-11T12:38:41.588Z,100958.44
2022-12-11T12:41:26.288Z,100964.53
2022-12-11T12:44:00.512Z,100965.47
2022-12-11T12:47:01.783Z,100967.38
2022-12-11T12:49:49.065Z,100971.75
2022-12-11T12:52:17.721Z,100964.06
2022-12-11T12:55:07.223Z,100959.91
2022-12-11T12:57:34.806Z,100962.59
2022-12-11T13:00:01.699Z,100958.97
2022-12-11T13:02:29.283Z,100960.69
2022-12-11T13:05:03.747Z,100954.81
2022-12-11T13:07:35.175Z,100952.13
2022-12-11T13:10:48.089Z,100952.34
2022-12-11T13:13:41.688Z,100944.69
2022-12-11T13:16:23.642Z,100946.47
2022-12-11T13:18:56.958Z,100953.59
2022-12-11T13:21:45.298Z,100955.31
2022-12-11T13:24:20.794Z,100961.47
2022-12-11T13:26:50.084Z,100956.25
2022-12-11T13:29:36.654Z,100954.53
2022-12-11T13:35:18.535Z,100968.19
2022-12-11T13:37:48.954Z,100961.06
2022-12-11T13:40:15.432Z,100969.75
2022-12-11T13:42:56.724Z,100970.81
2022-12-11T13:45:29.003Z,100971.75
2022-12-11T13:48:53.871Z,100969.25
2022-12-11T13:51:29.013Z,100972.84
2022-12-11T13:54:16.767Z,100971.00
2022-12-11T13:57:04.423Z,100974.44
2022-12-11T13:59:38.295Z,100965.69
2022-12-11T14:02:51.781Z,100968.34
2022-12-11T14:05:24.529Z,100973.31
2022-12-11T14:08:14.850Z,100978.50
2022-12-11T14:10:41.429Z,100979.41
2022-12-11T14:13:28.121Z,100967.13
2022-12-11T14:16:13.588Z,100978.50
2022-12-11T14:18:41.403Z,100972.38
2022-12-11T14:21:21.778Z,100975.81
2022-12-11T14:24:00.618Z,100972.31
2022-12-11T14:26:38.696Z,100978.31
2022-12-11T14:29:09.175Z,100975.50
2022-12-11T14:31:44.728Z,100976.94
2022-12-11T14:34:23.085Z,100978.53
2022-12-11T14:37:10.160Z,100977.69
2022-12-11T14:40:03.921Z,100974.25
2022-12-11T14:42:41.402Z,100970.84
2022-12-11T14:45:30.530Z,100978.84
2022-12-11T14:48:01.006Z,100982.19
2022-12-11T14:51:02.392Z,100980.47
2022-12-11T14:53:51.794Z,100979.66
2022-12-11T14:56:36.605Z,100979.59
2022-12-11T14:59:09.476Z,100979.47
2022-12-11T15:02:25.707Z,100975.00
2022-12-11T15:05:20.539Z,100985.31
2022-12-11T15:08:00.415Z,100979.88
2022-12-11T15:11:15.028Z,100986.03
2022-12-11T15:14:03.122Z,100981.53
2022-12-11T15:16:35.739Z,100982.38
2022-12-11T15:19:06.623Z,100991.03
2022-12-11T15:21:43.258Z,100995.34
2022-12-11T15:24:28.753Z,100995.34
2022-12-11T15:27:11.631Z,100985.72
2022-12-11T15:29:41.524Z,100990.69
2022-12-11T15:36:00.084Z,100995.72
2022-12-11T15:38:42.624Z,100994.97
2022-12-11T15:41:14.196Z,101000.34
2022-12-11T15:43:40.816Z,100999.41
2022-12-11T15:46:22.881Z,100988.66
2022-12-11T15:48:50.312Z,100999.16
2022-12-11T15:51:18.473Z,101002.63
2022-12-11T15:53:47.776Z,101007.94
2022-12-11T15:56:18.024Z,101005.34
2022-12-11T15:59:36.376Z,101007.19
2022-12-11T16:02:18.943Z,101007.25
2022-12-11T16:04:53.448Z,101008.34
2022-12-11T16:07:25.528Z,101009.31
2022-12-11T16:09:56.138Z,100998.00
2022-12-11T16:12:40.789Z,100997.22
2022-12-11T16:15:08.400Z,100998.91
2022-12-11T16:17:34.938Z,100989.00
2022-12-11T16:20:01.470Z,100998.13
2022-12-11T16:22:27.921Z,101000.00
2022-12-11T16:24:55.288Z,101005.97
2022-12-11T16:27:23.355Z,101010.16
2022-12-11T16:29:53.479Z,101010.22
2022-12-11T16:32:25.900Z,100998.81
2022-12-11T16:35:02.428Z,101004.00
2022-12-11T16:37:35.718Z,101004.09
2022-12-11T16:40:02.448Z,100999.69
2022-12-11T16:42:28.909Z,100997.94
2022-12-11T16:45:08.288Z,100999.66
2022-12-11T16:47:36.484Z,101002.19
2022-12-11T16:50:03.323Z,101002.84
2022-12-11T16:52:33.687Z,101002.00
2022-12-11T16:55:00.305Z,100997.56
2022-12-11T16:57:34.928Z,100989.88
2022-12-11T17:00:01.875Z,100996.91
2022-12-11T17:02:28.319Z,101000.53
2022-12-11T17:04:54.697Z,101000.34
2022-12-11T17:07:21.731Z,101007.31
2022-12-11T17:09:57.083Z,101003.94
2022-12-11T17:12:27.656Z,101007.38
2022-12-11T17:14:54.890Z,100990.84
2022-12-11T17:17:21.425Z,100996.16
2022-12-11T17:19:48.018Z,101000.47
2022-12-11T17:22:15.340Z,101003.94
2022-12-11T17:24:41.763Z,101010.09
2022-12-11T17:27:08.754Z,100999.69
2022-12-11T17:32:25.401Z,101003.25
2022-12-11T17:34:51.946Z,101005.84
2022-12-11T17:37:18.730Z,101002.41
2022-12-11T17:39:46.540Z,100994.69
2022-12-11T17:45:13.211Z,101002.69
2022-12-11T17:47:42.402Z,101001.91
2022-12-11T17:50:19.377Z,101007.09
2022-12-11T17:52:46.271Z,100996.34
2022-12-11T17:55:29.057Z,101006.69
2022-12-11T17:57:55.467Z,100997.06
2022-12-11T18:00:28.695Z,101002.19
2022-12-11T18:02:59.027Z,101009.03
2022-12-11T18:05:29.435Z,101014.09
2022-12-11T18:08:17.125Z,101012.34
2022-12-11T18:10:45.668Z,101010.75
2022-12-11T18:13:12.887Z,101016.88
2022-12-11T18:15:48.433Z,101015.16
2022-12-11T18:18:15.975Z,101015.28
2022-12-11T18:20:49.816Z,101015.28
2022-12-11T18:23:16.926Z,101021.31
2022-12-11T18:25:46.955Z,101017.84
2022-12-11T18:28:21.893Z,101016.13
2022-12-11T18:30:57.865Z,101010.16
2022-12-11T18:33:33.430Z,101012.00
2022-12-11T18:35:59.817Z,101018.16
2022-12-11T18:38:49.524Z,101019.69
2022-12-11T18:41:24.321Z,101012.34
2022-12-11T18:43:56.400Z,101014.94
2022-12-11T18:46:23.186Z,101020.06
2022-12-11T18:48:57.389Z,101019.16
2022-12-11T18:51:24.786Z,101022.53
2022-12-11T18:53:53.155Z,101023.38
2022-12-11T18:56:32.021Z,101010.00
2022-12-11T18:59:05.852Z,101026.44
2022-12-11T19:01:34.611Z,101017.66
2022-12-11T19:04:04.563Z,101000.81
2022-12-11T19:06:36.571Z,101011.41
2022-12-11T19:09:05.294Z,101017.28
2022-12-11T19:11:32.981Z,101017.47
2022-12-11T19:13:59.593Z,101017.44
2022-12-11T19:16:47.322Z,101018.31
2022-12-11T19:19:22.859Z,101025.38
2022-12-11T19:21:50.354Z,101018.31
2022-12-11T19:24:21.849Z,101022.66
2022-12-11T19:27:00.678Z,101020.91
2022-12-11T19:29:42.930Z,101020.91
2022-12-11T19:32:28.101Z,101020.16
2022-12-11T19:34:58.676Z,101022.53
2022-12-11T19:37:25.137Z,101025.13
2022-12-11T19:42:52.894Z,101016.78
2022-12-11T19:45:32.471Z,101021.97
2022-12-11T19:47:58.897Z,101021.91
2022-12-11T19:50:25.352Z,101021.84
2022-12-11T19:52:51.831Z,101023.50
2022-12-11T19:55:21.696Z,101021.84
2022-12-11T19:57:50.010Z,101020.19
2022-12-11T20:00:28.448Z,101024.50
2022-12-11T20:02:55.081Z,101026.09
2022-12-11T20:05:31.147Z,101026.97
2022-12-11T20:08:14.307Z,101021.78
2022-12-11T20:10:44.778Z,101016.66
2022-12-11T20:13:13.242Z,101018.63
2022-12-11T20:15:45.464Z,101018.53
2022-12-11T20:18:18.254Z,101024.38
2022-12-11T20:20:51.962Z,101032.03
2022-12-11T20:23:18.475Z,101038.88
2022-12-11T20:25:46.260Z,101032.72
2022-12-11T20:28:12.816Z,101046.63
2022-12-11T20:30:39.299Z,101037.91
2022-12-11T20:33:05.771Z,101038.03
2022-12-11T20:36:05.840Z,101032.91
2022-12-11T20:38:39.448Z,101030.41
2022-12-11T20:41:09.244Z,101026.09
2022-12-11T20:44:00.957Z,101032.28
2022-12-11T20:46:32.188Z,101032.38
2022-12-11T20:48:58.846Z,101031.41
2022-12-11T20:51:26.701Z,101028.72
2022-12-11T20:54:02.560Z,101035.50
2022-12-11T20:56:35.271Z,101039.00
2022-12-11T20:59:04.057Z,101040.72
2022-12-11T21:01:36.005Z,101039.88
2022-12-11T21:04:11.824Z,101037.44
2022-12-11T21:06:40.446Z,101051.34
2022-12-11T21:11:58.154Z,101048.41
2022-12-11T21:14:24.789Z,101051.00
2022-12-11T21:16:57.842Z,101046.66
2022-12-11T21:19:32.467Z,101048.28
2022-12-11T21:22:06.044Z,101051.84
2022-12-11T21:24:33.146Z,101042.22
2022-12-11T21:27:00.025Z,101050.84
2022-12-11T21:29:29.252Z,101051.72
2022-12-11T21:31:57.138Z,101049.88
2022-12-11T21:34:25.591Z,101042.94
2022-12-11T21:36:56.791Z,101047.16
2022-12-11T21:39:24.711Z,101043.75
2022-12-11T21:41:51.247Z,101041.22
2022-12-11T21:47:04.832Z,101041.25
2022-12-11T21:49:31.293Z,101038.66
2022-12-11T21:51:58.031Z,101048.25
2022-12-11T21:54:35.315Z,101056.78
2022-12-11T21:57:01.818Z,101041.97
2022-12-11T21:59:28.595Z,101055.06
2022-12-11T22:01:55.425Z,101053.44
2022-12-11T22:04:21.996Z,101051.84
2022-12-11T22:06:50.512Z,101053.59
2022-12-11T22:09:18.389Z,101057.91
2022-12-11T22:11:47.678Z,101058.75
2022-12-11T22:15:06.865Z,101058.69
2022-12-11T22:17:37.522Z,101049.56
2022-12-11T22:20:05.949Z,101064.38
2022-12-11T22:22:33.071Z,101072.16
2022-12-11T22:25:00.303Z,101072.84
2022-12-11T22:27:30.063Z,101070.31
2022-12-11T22:29:56.475Z,101059.09
2022-12-11T22:32:24.255Z,101067.06
2022-12-11T22:34:56.280Z,101053.13
2022-12-11T22:37:22.853Z,101061.69
2022-12-11T22:39:49.621Z,101060.78
2022-12-11T22:42:16.158Z,101065.75
2022-12-11T22:44:42.539Z,101070.69
2022-12-11T22:47:10.267Z,101078.41
2022-12-11T22:49:36.632Z,101075.72
2022-12-11T22:52:05.886Z,101075.59
2022-12-11T22:54:32.483Z,101083.38
2022-12-11T22:56:58.905Z,101079.22
2022-12-11T22:59:25.247Z,101087.78
2022-12-11T23:01:52.138Z,101085.84
2022-12-11T23:04:18.536Z,101089.16
2022-12-11T23:06:44.982Z,101078.78
2022-12-11T23:09:12.028Z,101084.84
2022-12-11T23:11:39.993Z,101076.09
2022-12-11T23:14:10.975Z,101082.16
2022-12-11T23:16:38.022Z,101082.03
2022-12-11T23:19:04.600Z,101076.84
2022-12-11T23:21:31.248Z,101072.63
2022-12-11T23:24:00.548Z,101080.53
2022-12-11T23:26:28.639Z,101077.09
2022-12-11T23:28:59.565Z,101085.72
2022-12-11T23:31:28.279Z,101078.91
2022-12-11T23:33:56.259Z,101078.78
2022-12-11T23:36:25.221Z,101077.06
2022-12-11T23:38:54.844Z,101082.25
2022-12-11T23:41:22.104Z,101080.41
2022-12-11T23:43:50.851Z,101080.53
2022-12-11T23:46:21.061Z,101081.41
2022-12-11T23:48:48.226Z,101078.91
2022-12-11T23:51:16.737Z,101091.75
2022-12-11T23:53:43.388Z,101080.44
2022-12-11T23:56:13.051Z,101092.50
2022-12-11T23:58:40.634Z,101079.53
